sensor_id;sensor_type;location;lat;lon;timestamp;pressure;altitude;pressure_sealevel;temperature;humidity
57827;BME280;43656;57.746;11.780;2023-03-18T00:02:03;100579.09;;;8.46;92.08
57827;BME280;43656;57.746;11.780;2023-03-18T00:04:28;100565.63;;;8.40;92.08
57827;BME280;43656;57.746;11.780;2023-03-18T00:06:54;100576.06;;;8.50;92.03
57827;BME280;43656;57.746;11.780;2023-03-18T00:09:20;100583.50;;;8.54;92.08
57827;BME280;43656;57.746;11.780;2023-03-18T00:11:45;100597.94;;;8.53;92.33
57827;BME280;43656;57.746;11.780;2023-03-18T00:14:11;100596.31;;;8.52;91.95
57827;BME280;43656;57.746;11.780;2023-03-18T00:16:37;100580.66;;;8.56;92.50
57827;BME280;43656;57.746;11.780;2023-03-18T00:19:02;100582.69;;;8.54;92.61
57827;BME280;43656;57.746;11.780;2023-03-18T00:21:29;100576.94;;;8.57;92.45
57827;BME280;43656;57.746;11.780;2023-03-18T00:23:55;100569.28;;;8.54;92.42
57827;BME280;43656;57.746;11.780;2023-03-18T00:26:24;100572.78;;;8.54;92.55
57827;BME280;43656;57.746;11.780;2023-03-18T00:28:50;100553.56;;;8.51;92.81
57827;BME280;43656;57.746;11.780;2023-03-18T00:31:16;100567.19;;;8.49;92.89
57827;BME280;43656;57.746;11.780;2023-03-18T00:33:42;100557.88;;;8.45;93.22
57827;BME280;43656;57.746;11.780;2023-03-18T00:36:10;100563.69;;;8.49;93.16
57827;BME280;43656;57.746;11.780;2023-03-18T00:38:38;100560.72;;;8.43;93.52
57827;BME280;43656;57.746;11.780;2023-03-18T00:41:05;100559.72;;;8.44;93.82
57827;BME280;43656;57.746;11.780;2023-03-18T00:43:45;100580.53;;;8.42;93.73
57827;BME280;43656;57.746;11.780;2023-03-18T00:46:15;100572.28;;;8.44;93.49
57827;BME280;43656;57.746;11.780;2023-03-18T00:48:43;100566.09;;;8.43;94.08
57827;BME280;43656;57.746;11.780;2023-03-18T00:51:09;100569.78;;;8.42;93.99
57827;BME280;43656;57.746;11.780;2023-03-18T00:53:41;100571.06;;;8.46;93.74
57827;BME280;43656;57.746;11.780;2023-03-18T00:56:06;100570.63;;;8.43;93.82
57827;BME280;43656;57.746;11.780;2023-03-18T00:58:33;100568.38;;;8.46;94.03
57827;BME280;43656;57.746;11.780;2023-03-18T01:00:59;100568.88;;;8.35;94.71
57827;BME280;43656;57.746;11.780;2023-03-18T01:03:24;100567.75;;;8.44;94.39
57827;BME280;43656;57.746;11.780;2023-03-18T01:05:50;100555.63;;;8.34;94.32
57827;BME280;43656;57.746;11.780;2023-03-18T01:08:18;100568.16;;;8.41;94.65
57827;BME280;43656;57.746;11.780;2023-03-18T01:10:43;100568.97;;;8.42;94.37
57827;BME280;43656;57.746;11.780;2023-03-18T01:13:09;100553.72;;;8.42;94.93
57827;BME280;43656;57.746;11.780;2023-03-18T01:15:34;100552.50;;;8.45;95.22
57827;BME280;43656;57.746;11.780;2023-03-18T01:18:00;100544.41;;;8.38;94.73
57827;BME280;43656;57.746;11.780;2023-03-18T01:20:26;100537.69;;;8.34;95.06
57827;BME280;43656;57.746;11.780;2023-03-18T01:22:51;100536.16;;;8.40;94.77
57827;BME280;43656;57.746;11.780;2023-03-18T01:25:17;100540.94;;;8.44;94.75
57827;BME280;43656;57.746;11.780;2023-03-18T01:27:43;100535.59;;;8.44;95.10
57827;BME280;43656;57.746;11.780;2023-03-18T01:30:09;100515.44;;;8.34;95.36
57827;BME280;43656;57.746;11.780;2023-03-18T01:32:35;100541.41;;;8.48;95.18
57827;BME280;43656;57.746;11.780;2023-03-18T01:35:02;100551.25;;;8.47;95.18
57827;BME280;43656;57.746;11.780;2023-03-18T01:37:27;100568.66;;;8.52;95.06
57827;BME280;43656;57.746;11.780;2023-03-18T01:39:53;100573.81;;;8.53;95.75
57827;BME280;43656;57.746;11.780;2023-03-18T01:42:19;100572.16;;;8.52;95.73
57827;BME280;43656;57.746;11.780;2023-03-18T01:44:46;100579.81;;;8.55;95.89
57827;BME280;43656;57.746;11.780;2023-03-18T01:47:12;100567.91;;;8.58;95.67
57827;BME280;43656;57.746;11.780;2023-03-18T01:49:45;100564.94;;;8.53;96.09
57827;BME280;43656;57.746;11.780;2023-03-18T01:52:15;100542.16;;;8.42;96.83
57827;BME280;43656;57.746;11.780;2023-03-18T01:54:54;100546.38;;;8.51;96.41
57827;BME280;43656;57.746;11.780;2023-03-18T01:57:21;100560.69;;;8.58;96.26
57827;BME280;43656;57.746;11.780;2023-03-18T01:59:50;100556.97;;;8.59;96.39
57827;BME280;43656;57.746;11.780;2023-03-18T02:02:16;100551.59;;;8.59;96.50
57827;BME280;43656;57.746;11.780;2023-03-18T02:04:46;100540.22;;;8.57;97.24
57827;BME280;43656;57.746;11.780;2023-03-18T02:07:34;100547.06;;;8.60;96.69
57827;BME280;43656;57.746;11.780;2023-03-18T02:10:03;100534.47;;;8.60;96.77
57827;BME280;43656;57.746;11.780;2023-03-18T02:12:32;100529.06;;;8.54;97.15
57827;BME280;43656;57.746;11.780;2023-03-18T02:15:00;100557.03;;;8.66;97.20
57827;BME280;43656;57.746;11.780;2023-03-18T02:17:29;100553.75;;;8.70;97.09
57827;BME280;43656;57.746;11.780;2023-03-18T02:25:27;100561.63;;;8.72;96.98
57827;BME280;43656;57.746;11.780;2023-03-18T02:27:58;100565.19;;;8.79;96.75
57827;BME280;43656;57.746;11.780;2023-03-18T02:30:30;100553.41;;;8.80;97.14
57827;BME280;43656;57.746;11.780;2023-03-18T02:32:58;100560.25;;;8.83;97.54
57827;BME280;43656;57.746;11.780;2023-03-18T02:35:26;100555.50;;;8.78;97.22
57827;BME280;43656;57.746;11.780;2023-03-18T02:37:52;100562.13;;;8.82;97.27
57827;BME280;43656;57.746;11.780;2023-03-18T02:42:46;100566.72;;;8.88;97.64
57827;BME280;43656;57.746;11.780;2023-03-18T02:45:37;100564.47;;;8.92;97.26
57827;BME280;43656;57.746;11.780;2023-03-18T02:48:06;100560.13;;;8.91;97.08
57827;BME280;43656;57.746;11.780;2023-03-18T02:50:34;100561.97;;;8.90;96.96
57827;BME280;43656;57.746;11.780;2023-03-18T02:53:01;100557.47;;;8.91;97.16
57827;BME280;43656;57.746;11.780;2023-03-18T02:55:28;100556.41;;;8.92;96.91
57827;BME280;43656;57.746;11.780;2023-03-18T02:57:53;100555.34;;;8.86;96.91
57827;BME280;43656;57.746;11.780;2023-03-18T03:00:19;100550.78;;;8.87;96.97
57827;BME280;43656;57.746;11.780;2023-03-18T03:02:44;100537.97;;;8.82;97.19
57827;BME280;43656;57.746;11.780;2023-03-18T03:05:10;100538.81;;;8.83;97.50
57827;BME280;43656;57.746;11.780;2023-03-18T03:07:36;100523.41;;;8.70;96.94
57827;BME280;43656;57.746;11.780;2023-03-18T03:10:04;100548.50;;;8.84;96.48
57827;BME280;43656;57.746;11.780;2023-03-18T03:12:30;100556.53;;;8.84;97.28
57827;BME280;43656;57.746;11.780;2023-03-18T03:14:55;100557.41;;;8.84;96.86
57827;BME280;43656;57.746;11.780;2023-03-18T03:17:21;100545.38;;;8.80;96.69
57827;BME280;43656;57.746;11.780;2023-03-18T03:19:46;100549.34;;;8.84;97.14
57827;BME280;43656;57.746;11.780;2023-03-18T03:22:12;100550.78;;;8.87;96.66
57827;BME280;43656;57.746;11.780;2023-03-18T03:24:37;100531.97;;;8.80;97.16
57827;BME280;43656;57.746;11.780;2023-03-18T03:27:03;100530.06;;;8.74;96.97
57827;BME280;43656;57.746;11.780;2023-03-18T03:29:29;100530.56;;;8.84;96.60
57827;BME280;43656;57.746;11.780;2023-03-18T03:31:54;100535.69;;;8.79;96.63
57827;BME280;43656;57.746;11.780;2023-03-18T03:34:19;100554.50;;;8.86;96.16
57827;BME280;43656;57.746;11.780;2023-03-18T03:36:45;100556.81;;;8.89;96.42
57827;BME280;43656;57.746;11.780;2023-03-18T03:39:10;100541.53;;;8.89;96.41
57827;BME280;43656;57.746;11.780;2023-03-18T03:41:36;100543.78;;;8.86;96.60
57827;BME280;43656;57.746;11.780;2023-03-18T03:44:02;100547.72;;;8.90;96.13
57827;BME280;43656;57.746;11.780;2023-03-18T03:46:28;100533.47;;;8.89;97.19
57827;BME280;43656;57.746;11.780;2023-03-18T03:48:53;100536.16;;;8.89;96.62
57827;BME280;43656;57.746;11.780;2023-03-18T03:51:19;100538.66;;;8.91;96.06
57827;BME280;43656;57.746;11.780;2023-03-18T03:53:44;100543.84;;;8.92;96.50
57827;BME280;43656;57.746;11.780;2023-03-18T03:56:10;100543.66;;;8.94;96.05
57827;BME280;43656;57.746;11.780;2023-03-18T03:58:36;100536.81;;;8.91;96.04
57827;BME280;43656;57.746;11.780;2023-03-18T04:01:02;100545.69;;;8.92;96.35
57827;BME280;43656;57.746;11.780;2023-03-18T04:03:30;100522.09;;;8.81;96.60
57827;BME280;43656;57.746;11.780;2023-03-18T04:05:56;100540.50;;;8.90;96.40
57827;BME280;43656;57.746;11.780;2023-03-18T04:08:21;100548.53;;;8.90;96.40
57827;BME280;43656;57.746;11.780;2023-03-18T04:10:47;100551.22;;;8.90;96.70
57827;BME280;43656;57.746;11.780;2023-03-18T04:13:13;100537.81;;;8.90;96.82
57827;BME280;43656;57.746;11.780;2023-03-18T04:15:38;100545.44;;;8.87;96.74
57827;BME280;43656;57.746;11.780;2023-03-18T04:18:04;100536.75;;;8.85;96.49
57827;BME280;43656;57.746;11.780;2023-03-18T04:20:36;100530.75;;;8.83;97.07
57827;BME280;43656;57.746;11.780;2023-03-18T04:23:02;100529.72;;;8.84;96.70
57827;BME280;43656;57.746;11.780;2023-03-18T04:25:28;100541.03;;;8.79;97.75
57827;BME280;43656;57.746;11.780;2023-03-18T04:27:54;100546.41;;;8.79;97.24
57827;BME280;43656;57.746;11.780;2023-03-18T04:30:19;100538.56;;;8.78;97.37
57827;BME280;43656;57.746;11.780;2023-03-18T04:32:48;100550.34;;;8.83;97.42
57827;BME280;43656;57.746;11.780;2023-03-18T04:35:15;100554.06;;;8.82;97.89
57827;BME280;43656;57.746;11.780;2023-03-18T04:37:41;100559.44;;;8.82;97.64
57827;BME280;43656;57.746;11.780;2023-03-18T04:40:08;100544.44;;;8.66;97.56
57827;BME280;43656;57.746;11.780;2023-03-18T04:42:34;100560.41;;;8.75;97.94
57827;BME280;43656;57.746;11.780;2023-03-18T04:45:00;100562.72;;;8.78;98.37
57827;BME280;43656;57.746;11.780;2023-03-18T04:47:26;100556.91;;;8.74;97.90
57827;BME280;43656;57.746;11.780;2023-03-18T04:49:52;100561.78;;;8.70;98.78
57827;BME280;43656;57.746;11.780;2023-03-18T04:52:18;100560.16;;;8.69;97.94
57827;BME280;43656;57.746;11.780;2023-03-18T04:54:44;100559.31;;;8.69;98.80
57827;BME280;43656;57.746;11.780;2023-03-18T04:57:10;100558.88;;;8.65;98.54
57827;BME280;43656;57.746;11.780;2023-03-18T04:59:35;100546.88;;;8.61;98.48
57827;BME280;43656;57.746;11.780;2023-03-18T05:02:01;100534.41;;;8.54;99.17
57827;BME280;43656;57.746;11.780;2023-03-18T05:04:26;100541.91;;;8.58;99.09
57827;BME280;43656;57.746;11.780;2023-03-18T05:06:52;100541.47;;;8.55;99.00
57827;BME280;43656;57.746;11.780;2023-03-18T05:09:18;100539.41;;;8.57;99.09
57827;BME280;43656;57.746;11.780;2023-03-18T05:11:44;100542.28;;;8.55;99.01
57827;BME280;43656;57.746;11.780;2023-03-18T05:14:09;100530.66;;;8.48;98.88
57827;BME280;43656;57.746;11.780;2023-03-18T05:16:35;100538.94;;;8.53;99.45
57827;BME280;43656;57.746;11.780;2023-03-18T05:19:01;100538.88;;;8.46;99.20
57827;BME280;43656;57.746;11.780;2023-03-18T05:21:27;100530.41;;;8.43;99.83
57827;BME280;43656;57.746;11.780;2023-03-18T05:23:52;100542.00;;;8.50;99.90
57827;BME280;43656;57.746;11.780;2023-03-18T05:26:18;100542.00;;;8.50;99.65
57827;BME280;43656;57.746;11.780;2023-03-18T05:28:43;100524.81;;;8.38;100.00
57827;BME280;43656;57.746;11.780;2023-03-18T05:31:09;100546.56;;;8.50;99.75
57827;BME280;43656;57.746;11.780;2023-03-18T05:33:34;100533.91;;;8.43;100.00
57827;BME280;43656;57.746;11.780;2023-03-18T05:36:00;100542.22;;;8.49;100.00
57827;BME280;43656;57.746;11.780;2023-03-18T05:38:26;100524.88;;;8.30;100.00
57827;BME280;43656;57.746;11.780;2023-03-18T05:40:51;100539.38;;;8.35;100.00
57827;BME280;43656;57.746;11.780;2023-03-18T05:43:17;100549.56;;;8.40;100.00
57827;BME280;43656;57.746;11.780;2023-03-18T05:45:42;100545.75;;;8.34;100.00
57827;BME280;43656;57.746;11.780;2023-03-18T05:48:08;100547.59;;;8.34;100.00
57827;BME280;43656;57.746;11.780;2023-03-18T05:50:37;100546.78;;;8.33;100.00
57827;BME280;43656;57.746;11.780;2023-03-18T05:53:04;100546.69;;;8.41;100.00
57827;BME280;43656;57.746;11.780;2023-03-18T05:55:31;100545.38;;;8.37;100.00
57827;BME280;43656;57.746;11.780;2023-03-18T05:57:57;100552.78;;;8.35;100.00
57827;BME280;43656;57.746;11.780;2023-03-18T06:00:23;100551.75;;;8.36;100.00
57827;BME280;43656;57.746;11.780;2023-03-18T06:02:49;100554.63;;;8.35;100.00
57827;BME280;43656;57.746;11.780;2023-03-18T06:05:17;100554.19;;;8.31;100.00
57827;BME280;43656;57.746;11.780;2023-03-18T06:07:43;100561.22;;;8.32;100.00
57827;BME280;43656;57.746;11.780;2023-03-18T06:10:10;100558.16;;;8.35;100.00
57827;BME280;43656;57.746;11.780;2023-03-18T06:12:36;100550.13;;;8.20;100.00
57827;BME280;43656;57.746;11.780;2023-03-18T06:15:02;100549.31;;;8.20;100.00
57827;BME280;43656;57.746;11.780;2023-03-18T06:17:28;100567.59;;;8.31;100.00
57827;BME280;43656;57.746;11.780;2023-03-18T06:19:54;100543.78;;;8.21;100.00
57827;BME280;43656;57.746;11.780;2023-03-18T06:22:21;100561.50;;;8.22;100.00
57827;BME280;43656;57.746;11.780;2023-03-18T06:24:46;100567.69;;;8.23;100.00
57827;BME280;43656;57.746;11.780;2023-03-18T06:27:12;100562.72;;;8.20;100.00
57827;BME280;43656;57.746;11.780;2023-03-18T06:29:37;100578.03;;;8.26;100.00
57827;BME280;43656;57.746;11.780;2023-03-18T06:32:03;100577.41;;;8.24;100.00
57827;BME280;43656;57.746;11.780;2023-03-18T06:34:28;100580.44;;;8.21;100.00
57827;BME280;43656;57.746;11.780;2023-03-18T06:36:54;100587.94;;;8.26;100.00
57827;BME280;43656;57.746;11.780;2023-03-18T06:39:21;100587.28;;;8.23;100.00
57827;BME280;43656;57.746;11.780;2023-03-18T06:41:47;100594.88;;;8.20;100.00
57827;BME280;43656;57.746;11.780;2023-03-18T06:44:12;100596.16;;;8.24;100.00
57827;BME280;43656;57.746;11.780;2023-03-18T06:46:38;100572.09;;;8.09;100.00
57827;BME280;43656;57.746;11.780;2023-03-18T06:49:04;100591.38;;;8.19;100.00
57827;BME280;43656;57.746;11.780;2023-03-18T06:51:30;100590.78;;;8.24;100.00
57827;BME280;43656;57.746;11.780;2023-03-18T06:53:57;100588.13;;;8.24;100.00
57827;BME280;43656;57.746;11.780;2023-03-18T06:56:22;100598.84;;;8.24;100.00
57827;BME280;43656;57.746;11.780;2023-03-18T06:58:48;100595.16;;;8.25;100.00
57827;BME280;43656;57.746;11.780;2023-03-18T07:01:13;100597.19;;;8.23;100.00
57827;BME280;43656;57.746;11.780;2023-03-18T07:03:39;100593.47;;;8.24;100.00
57827;BME280;43656;57.746;11.780;2023-03-18T07:06:06;100589.78;;;8.25;100.00
57827;BME280;43656;57.746;11.780;2023-03-18T07:08:32;100591.81;;;8.23;100.00
57827;BME280;43656;57.746;11.780;2023-03-18T07:10:57;100590.41;;;8.27;100.00
57827;BME280;43656;57.746;11.780;2023-03-18T07:13:23;100573.88;;;8.23;100.00
57827;BME280;43656;57.746;11.780;2023-03-18T07:15:48;100581.81;;;8.32;100.00
57827;BME280;43656;57.746;11.780;2023-03-18T07:18:15;100563.16;;;8.23;100.00
57827;BME280;43656;57.746;11.780;2023-03-18T07:20:40;100591.25;;;8.42;100.00
57827;BME280;43656;57.746;11.780;2023-03-18T07:23:06;100600.84;;;8.52;100.00
57827;BME280;43656;57.746;11.780;2023-03-18T07:25:32;100602.75;;;8.58;100.00
57827;BME280;43656;57.746;11.780;2023-03-18T07:27:58;100597.41;;;8.58;100.00
57827;BME280;43656;57.746;11.780;2023-03-18T07:30:27;100600.69;;;8.60;100.00
57827;BME280;43656;57.746;11.780;2023-03-18T07:32:53;100601.53;;;8.60;100.00
57827;BME280;43656;57.746;11.780;2023-03-18T07:35:20;100606.78;;;8.68;100.00
57827;BME280;43656;57.746;11.780;2023-03-18T07:37:46;100616.91;;;8.73;100.00
57827;BME280;43656;57.746;11.780;2023-03-18T07:40:13;100609.31;;;8.77;100.00
57827;BME280;43656;57.746;11.780;2023-03-18T07:42:39;100611.63;;;8.80;100.00
57827;BME280;43656;57.746;11.780;2023-03-18T07:45:08;100607.59;;;8.90;100.00
57827;BME280;43656;57.746;11.780;2023-03-18T07:47:33;100606.53;;;8.85;100.00
57827;BME280;43656;57.746;11.780;2023-03-18T07:49:59;100620.88;;;8.99;100.00
57827;BME280;43656;57.746;11.780;2023-03-18T07:52:25;100621.59;;;9.07;100.00
57827;BME280;43656;57.746;11.780;2023-03-18T07:54:50;100623.84;;;9.10;100.00
57827;BME280;43656;57.746;11.780;2023-03-18T07:57:16;100625.28;;;9.06;100.00
57827;BME280;43656;57.746;11.780;2023-03-18T07:59:42;100632.94;;;9.09;100.00
57827;BME280;43656;57.746;11.780;2023-03-18T08:02:11;100635.00;;;9.07;100.00
57827;BME280;43656;57.746;11.780;2023-03-18T08:04:39;100633.97;;;9.08;100.00
57827;BME280;43656;57.746;11.780;2023-03-18T08:07:04;100633.16;;;9.08;100.00
57827;BME280;43656;57.746;11.780;2023-03-18T08:09:30;100642.47;;;9.12;100.00
57827;BME280;43656;57.746;11.780;2023-03-18T08:11:56;100641.06;;;9.16;100.00
57827;BME280;43656;57.746;11.780;2023-03-18T08:14:22;100639.41;;;9.15;100.00
57827;BME280;43656;57.746;11.780;2023-03-18T08:16:48;100645.22;;;9.18;100.00
57827;BME280;43656;57.746;11.780;2023-03-18T08:19:13;100637.59;;;9.22;100.00
57827;BME280;43656;57.746;11.780;2023-03-18T08:21:39;100629.53;;;9.22;100.00
57827;BME280;43656;57.746;11.780;2023-03-18T08:24:05;100630.84;;;9.33;100.00
57827;BME280;43656;57.746;11.780;2023-03-18T08:26:30;100630.84;;;9.33;100.00
57827;BME280;43656;57.746;11.780;2023-03-18T08:28:56;100612.66;;;9.28;100.00
57827;BME280;43656;57.746;11.780;2023-03-18T08:31:22;100629.31;;;9.45;100.00
57827;BME280;43656;57.746;11.780;2023-03-18T08:33:47;100620.16;;;9.39;100.00
57827;BME280;43656;57.746;11.780;2023-03-18T08:36:14;100617.47;;;9.39;100.00
57827;BME280;43656;57.746;11.780;2023-03-18T08:38:39;100626.25;;;9.55;100.00
57827;BME280;43656;57.746;11.780;2023-03-18T08:41:05;100635.41;;;9.60;100.00
57827;BME280;43656;57.746;11.780;2023-03-18T08:43:31;100634.16;;;9.63;100.00
57827;BME280;43656;57.746;11.780;2023-03-18T08:45:57;100640.38;;;9.63;100.00
57827;BME280;43656;57.746;11.780;2023-03-18T08:48:23;100641.59;;;9.61;100.00
57827;BME280;43656;57.746;11.780;2023-03-18T08:50:49;100635.59;;;9.59;100.00
57827;BME280;43656;57.746;11.780;2023-03-18T08:53:15;100632.94;;;9.65;100.00
57827;BME280;43656;57.746;11.780;2023-03-18T08:55:41;100637.91;;;9.69;100.00
57827;BME280;43656;57.746;11.780;2023-03-18T08:58:07;100611.66;;;9.64;100.00
57827;BME280;43656;57.746;11.780;2023-03-18T09:00:34;100631.00;;;9.87;100.00
57827;BME280;43656;57.746;11.780;2023-03-18T09:03:01;100631.88;;;9.95;100.00
57827;BME280;43656;57.746;11.780;2023-03-18T09:05:27;100634.56;;;9.95;100.00
57827;BME280;43656;57.746;11.780;2023-03-18T09:07:52;100630.22;;;9.94;100.00
57827;BME280;43656;57.746;11.780;2023-03-18T09:10:18;100637.25;;;9.95;100.00
57827;BME280;43656;57.746;11.780;2023-03-18T09:12:45;100639.28;;;9.93;100.00
57827;BME280;43656;57.746;11.780;2023-03-18T09:15:12;100659.72;;;9.80;100.00
57827;BME280;43656;57.746;11.780;2023-03-18T09:17:39;100662.63;;;9.85;100.00
57827;BME280;43656;57.746;11.780;2023-03-18T09:20:12;100662.66;;;9.92;100.00
57827;BME280;43656;57.746;11.780;2023-03-18T09:22:39;100667.84;;;9.94;100.00
57827;BME280;43656;57.746;11.780;2023-03-18T09:25:06;100668.78;;;9.79;100.00
57827;BME280;43656;57.746;11.780;2023-03-18T09:27:32;100667.94;;;9.79;100.00
57827;BME280;43656;57.746;11.780;2023-03-18T09:29:57;100650.91;;;9.65;100.00
57827;BME280;43656;57.746;11.780;2023-03-18T09:32:23;100678.34;;;9.88;100.00
57827;BME280;43656;57.746;11.780;2023-03-18T09:34:49;100672.78;;;9.90;100.00
57827;BME280;43656;57.746;11.780;2023-03-18T09:37:16;100681.69;;;9.91;100.00
57827;BME280;43656;57.746;11.780;2023-03-18T09:39:43;100671.94;;;9.89;100.00
57827;BME280;43656;57.746;11.780;2023-03-18T09:48:11;100688.56;;;10.06;100.00
57827;BME280;43656;57.746;11.780;2023-03-18T09:51:00;100696.22;;;10.03;100.00
57827;BME280;43656;57.746;11.780;2023-03-18T09:53:45;100700.97;;;10.01;100.00
57827;BME280;43656;57.746;11.780;2023-03-18T09:56:17;100695.78;;;9.99;100.00
57827;BME280;43656;57.746;11.780;2023-03-18T09:59:04;100699.53;;;10.05;100.00
57827;BME280;43656;57.746;11.780;2023-03-18T10:01:34;100703.06;;;10.05;100.00
57827;BME280;43656;57.746;11.780;2023-03-18T10:04:09;100681.72;;;9.97;100.00
57827;BME280;43656;57.746;11.780;2023-03-18T10:06:40;100697.09;;;10.10;100.00
57827;BME280;43656;57.746;11.780;2023-03-18T10:09:09;100704.91;;;10.05;100.00
57827;BME280;43656;57.746;11.780;2023-03-18T10:11:41;100699.13;;;10.08;100.00
57827;BME280;43656;57.746;11.780;2023-03-18T10:19:52;100686.03;;;10.33;100.00
57827;BME280;43656;57.746;11.780;2023-03-18T10:33:05;100694.03;;;10.61;100.00
57827;BME280;43656;57.746;11.780;2023-03-18T10:35:47;100694.66;;;10.63;100.00
57827;BME280;43656;57.746;11.780;2023-03-18T10:38:23;100698.38;;;10.62;100.00
57827;BME280;43656;57.746;11.780;2023-03-18T10:40:49;100702.75;;;10.63;100.00
57827;BME280;43656;57.746;11.780;2023-03-18T10:43:17;100701.09;;;10.69;100.00
57827;BME280;43656;57.746;11.780;2023-03-18T10:45:45;100692.41;;;10.67;100.00
57827;BME280;43656;57.746;11.780;2023-03-18T10:48:19;100696.72;;;10.61;100.00
57827;BME280;43656;57.746;11.780;2023-03-18T10:51:09;100711.00;;;10.62;100.00
57827;BME280;43656;57.746;11.780;2023-03-18T10:53:42;100709.31;;;10.54;100.00
57827;BME280;43656;57.746;11.780;2023-03-18T10:56:11;100706.81;;;10.52;99.78
57827;BME280;43656;57.746;11.780;2023-03-18T10:58:38;100712.16;;;10.46;99.67
57827;BME280;43656;57.746;11.780;2023-03-18T11:01:06;100702.06;;;10.48;99.77
57827;BME280;43656;57.746;11.780;2023-03-18T11:03:37;100698.53;;;10.47;99.25
57827;BME280;43656;57.746;11.780;2023-03-18T11:06:05;100701.03;;;10.55;99.07
57827;BME280;43656;57.746;11.780;2023-03-18T11:08:38;100698.16;;;10.57;98.87
57827;BME280;43656;57.746;11.780;2023-03-18T11:11:28;100714.78;;;10.80;98.65
57827;BME280;43656;57.746;11.780;2023-03-18T11:13:57;100711.88;;;10.82;97.75
57827;BME280;43656;57.746;11.780;2023-03-18T11:16:39;100697.19;;;10.78;98.43
57827;BME280;43656;57.746;11.780;2023-03-18T11:24:32;100711.75;;;11.10;97.37
57827;BME280;43656;57.746;11.780;2023-03-18T11:27:21;100701.41;;;11.20;97.34
57827;BME280;43656;57.746;11.780;2023-03-18T11:29:58;100704.50;;;11.17;97.13
57827;BME280;43656;57.746;11.780;2023-03-18T11:32:31;100707.84;;;11.19;96.94
57827;BME280;43656;57.746;11.780;2023-03-18T11:35:00;100704.53;;;11.37;96.59
57827;BME280;43656;57.746;11.780;2023-03-18T11:37:35;100708.03;;;11.51;96.42
57827;BME280;43656;57.746;11.780;2023-03-18T11:42:31;100706.16;;;11.71;95.73
57827;BME280;43656;57.746;11.780;2023-03-18T11:45:00;100689.41;;;11.63;96.12
57827;BME280;43656;57.746;11.780;2023-03-18T11:47:29;100706.16;;;11.78;95.50
57827;BME280;43656;57.746;11.780;2023-03-18T11:49:58;100705.13;;;11.79;95.02
57827;BME280;43656;57.746;11.780;2023-03-18T12:01:05;100718.63;;;11.99;94.65
57827;BME280;43656;57.746;11.780;2023-03-18T12:03:40;100720.81;;;12.29;93.85
57827;BME280;43656;57.746;11.780;2023-03-18T12:16:57;100738.78;;;12.48;93.33
57827;BME280;43656;57.746;11.780;2023-03-18T12:19:49;100735.91;;;12.43;92.59
57827;BME280;43656;57.746;11.780;2023-03-18T12:28:20;100732.25;;;12.17;93.32
57827;BME280;43656;57.746;11.780;2023-03-18T12:31:14;100738.06;;;12.08;93.48
57827;BME280;43656;57.746;11.780;2023-03-18T12:36:56;100727.72;;;11.78;93.77
57827;BME280;43656;57.746;11.780;2023-03-18T12:42:17;100735.19;;;12.03;92.47
57827;BME280;43656;57.746;11.780;2023-03-18T12:45:09;100735.75;;;12.25;92.00
57827;BME280;43656;57.746;11.780;2023-03-18T12:47:47;100730.94;;;12.40;91.35
57827;BME280;43656;57.746;11.780;2023-03-18T12:50:22;100737.56;;;12.44;90.99
57827;BME280;43656;57.746;11.780;2023-03-18T12:53:08;100736.13;;;12.41;91.05
57827;BME280;43656;57.746;11.780;2023-03-18T12:55:38;100706.06;;;12.25;90.65
57827;BME280;43656;57.746;11.780;2023-03-18T12:58:12;100725.78;;;12.38;91.03
57827;BME280;43656;57.746;11.780;2023-03-18T13:01:03;100734.66;;;12.52;90.66
57827;BME280;43656;57.746;11.780;2023-03-18T13:03:36;100734.16;;;12.68;90.02
57827;BME280;43656;57.746;11.780;2023-03-18T13:06:08;100731.44;;;12.75;89.90
57827;BME280;43656;57.746;11.780;2023-03-18T13:13:33;100749.47;;;12.75;89.86
57827;BME280;43656;57.746;11.780;2023-03-18T13:16:01;100746.41;;;12.64;89.60
57827;BME280;43656;57.746;11.780;2023-03-18T13:18:35;100753.91;;;12.62;89.74
57827;BME280;43656;57.746;11.780;2023-03-18T13:21:04;100754.13;;;12.54;89.51
57827;BME280;43656;57.746;11.780;2023-03-18T13:35:24;100762.38;;;12.73;88.81
57827;BME280;43656;57.746;11.780;2023-03-18T13:38:10;100769.72;;;12.59;88.98
57827;BME280;43656;57.746;11.780;2023-03-18T13:43:24;100777.44;;;12.49;88.73
57827;BME280;43656;57.746;11.780;2023-03-18T13:45:52;100774.50;;;12.50;88.91
57827;BME280;43656;57.746;11.780;2023-03-18T13:48:27;100776.78;;;12.53;89.03
57827;BME280;43656;57.746;11.780;2023-03-18T13:50:53;100786.38;;;12.36;89.50
57827;BME280;43656;57.746;11.780;2023-03-18T13:58:27;100787.84;;;12.32;89.61
57827;BME280;43656;57.746;11.780;2023-03-18T14:08:44;100798.44;;;12.20;89.67
57827;BME280;43656;57.746;11.780;2023-03-18T14:13:59;100799.09;;;11.89;89.70
57827;BME280;43656;57.746;11.780;2023-03-18T14:19:25;100807.34;;;11.81;90.90
57827;BME280;43656;57.746;11.780;2023-03-18T14:22:12;100804.88;;;11.72;91.05
57827;BME280;43656;57.746;11.780;2023-03-18T14:24:41;100805.06;;;11.64;91.19
57827;BME280;43656;57.746;11.780;2023-03-18T14:27:15;100800.31;;;11.66;91.13
57827;BME280;43656;57.746;11.780;2023-03-18T14:29:43;100800.72;;;11.63;90.88
57827;BME280;43656;57.746;11.780;2023-03-18T14:34:57;100805.69;;;11.66;91.09
57827;BME280;43656;57.746;11.780;2023-03-18T14:37:24;100803.00;;;11.73;90.69
57827;BME280;43656;57.746;11.780;2023-03-18T14:39:51;100802.59;;;11.83;90.84